This demonstration page uses our WeatherBlox Daily Observations layout. Learn more.

41.55636, -103.73856

Hourly Observations for June 12, 2020

Temp ( °F °C ) Dew Point ( °F °C ) Humidity (%) Winds ( mph kmh ) Pressure ( in mb ) Visibility ( mi km ) Precip ( " mm )
12:58 am 00:58 Clear 78 25.5 37 2.9 23 23 ESE 5 7 30.19 1023 10 16.0934 0 0
1:58 am 01:58 Clear 72 22.1 41 5 33 33 SSE 12 19 30.2 1023 10 16.0934 0 0
2:58 am 02:58 Clear 67 19.6 41 4.8 38 38 SSE 15 24 30.21 1023 10 16.0934 0 0
3:58 am 03:58 Clear 67 19.3 40 4.4 38 38 SSE 16 26 30.23 1024 10 16.0934 0 0
4:58 am 04:58 Clear 65 18.3 40 4.4 40 40 SSE 17 28 30.23 1024 10 16.0934 0 0
5:58 am 05:58 Clear 63 17.2 40 4.3 43 43 SSE 20 31 30.22 1023 10 16.0934 0 0
6:58 am 06:58 Clear 63 17.2 39 3.8 41 41 S 22 35 30.21 1023 10 16.0934 0 0
7:58 am 07:58 Mostly Cloudy 62 16.8 43 6 49 49 S 25 41 30.22 1023 10 16.0934 0 0
8:58 am 08:58 Mostly Cloudy 62 16.5 46 7.8 57 57 S 24 39 30.21 1023 10 16.0934 0 0
9:58 am 09:58 Mostly Cloudy 61 16 46 8 59 59 S 22 35 30.21 1023 10 16.0934 0 0
10:58 am 10:58 Partly Cloudy 60 15.4 47 8.3 63 63 SSW 22 35 30.21 1023 10 16.0934 0 0
11:58 am 11:58 Sunny 60 15.3 47 8.1 62 62 SSW 18 30 30.21 1023 10 16.0934 0 0
12:58 pm 12:58 Sunny 65 18.6 43 6.2 44 44 SSW 17 28 30.2 1023 10 16.0934 0 0
1:58 pm 13:58 Sunny 72 22.2 41 4.9 32 32 SSW 20 31 30.2 1023 10 16.0934 0 0
2:58 pm 14:58 Sunny 76 24.6 40 4.3 27 27 SSW 22 35 30.2 1023 10 16.0934 0 0
3:59 pm 15:59 Sunny 80 26.6 39 3.8 23 23 S 18 30 30.19 1022 10 16.0934 0 0
4:58 pm 16:58 Sunny 83 28.3 37 3 20 20 SSW 17 28 30.18 1022 10 16.0934 0 0
5:58 pm 17:58 Sunny 85 29.6 32 0 15 15 S 21 33 30.16 1021 10 16.0934 0 0
6:58 pm 18:58 Sunny 86 29.9 35 1.4 16 16 SSW 20 31 30.15 1021 10 16.0934 0 0
7:58 pm 19:58 Sunny 87 30.4 39 3.7 18 18 S 18 30 30.13 1020 10 16.0934 0 0
8:58 pm 20:58 Sunny 87 30.8 37 2.5 16 16 S 23 37 30.1 1019 10 16.0934 0 0
9:58 pm 21:58 Sunny 87 30.8 34 0.9 15 15 S 14 22 30.08 1019 10 16.0934 0 0
10:58 pm 22:58 Sunny 86 30.2 37 2.5 17 17 S 17 28 30.06 1018 10 16.0934 0 0
11:58 pm 23:58 Sunny 85 29.4 37 2.5 18 18 SSE 23 37 30.05 1018 10 16.0934 0 0

Powered by AerisWeather